Time;durP1;ratioP1;P1;durP2;ratioP2;P2;SDS_P1;SDS_P2;PMS_P1;PMS_P2;Temp;Humidity;BMP_temperature;BMP_pressure;BME280_temperature;BME280_humidity;BME280_pressure;Samples;Min_cycle;Max_cycle;Signal;HPM_P1;HPM_P2
2022/08/23 00:01:46;;;;;;;;;1.00;1.00;;;;;-147.47;100.00;64613.53;5028850;28;45762;-78
2022/08/23 00:04:19;;;;;;;;;1.00;1.00;;;;;-147.47;100.00;64613.53;5020720;28;45471;-78
2022/08/23 00:06:47;;;;;;;;;0.00;0.00;;;;;-147.47;100.00;64613.53;4998361;28;46980;-78
2022/08/23 00:09:13;;;;;;;;;1.00;1.00;;;;;-147.47;100.00;64613.53;5015119;28;46025;-79
2022/08/23 00:11:51;;;;;;;;;1.75;1.00;;;;;-147.47;100.00;64613.53;5015728;28;45930;-79
2022/08/23 00:14:19;;;;;;;;;1.00;1.00;;;;;-147.47;100.00;64613.53;5016426;28;45719;-78
2022/08/23 00:16:45;;;;;;;;;1.00;1.00;;;;;-147.47;100.00;64613.53;5028254;28;47175;-78
2022/08/23 00:19:13;;;;;;;;;1.00;1.00;;;;;-147.47;100.00;64613.53;5028035;28;45420;-72
2022/08/23 00:21:40;;;;;;;;;1.00;1.00;;;;;-147.47;100.00;64613.53;5024073;28;45893;-74
2022/08/23 00:24:07;;;;;;;;;1.00;1.00;;;;;-147.47;100.00;64613.53;5014354;28;45548;-74
2022/08/23 00:26:52;;;;;;;;;0.75;0.75;;;;;-147.47;100.00;64613.53;5011897;28;46321;-72
2022/08/23 00:29:18;;;;;;;;;3.00;2.00;;;;;-147.47;100.00;64613.53;5027779;28;45406;-74
2022/08/23 00:31:44;;;;;;;;;1.00;1.00;;;;;-147.47;100.00;64613.53;5030321;28;45341;-73
2022/08/23 00:34:11;;;;;;;;;1.25;1.25;;;;;-147.47;100.00;64613.53;5030979;28;45811;-72
2022/08/23 00:36:37;;;;;;;;;0.00;0.00;;;;;-147.47;100.00;64613.53;5031114;28;46114;-73
2022/08/23 00:39:02;;;;;;;;;1.50;1.25;;;;;-147.47;100.00;64613.53;5025501;28;45381;-72
2022/08/23 00:41:28;;;;;;;;;1.00;1.00;;;;;-147.47;100.00;64613.53;5030107;28;45666;-72
2022/08/23 00:49:34;;;;;;;;;1.75;1.75;;;;;-147.47;100.00;64613.53;5029142;28;45555;-73
2022/08/23 00:52:06;;;;;;;;;1.50;1.00;;;;;-147.47;100.00;64613.53;5030042;28;45728;-72
2022/08/23 00:54:33;;;;;;;;;2.75;1.50;;;;;-147.47;100.00;64613.53;5030487;28;46161;-73
2022/08/23 00:57:04;;;;;;;;;1.00;1.00;;;;;-147.47;100.00;64613.53;5029995;28;45923;-73
2022/08/23 00:59:30;;;;;;;;;0.50;0.50;;;;;-147.47;100.00;64613.53;5031348;28;45743;-73
2022/08/23 01:01:56;;;;;;;;;2.50;1.50;;;;;-147.47;100.00;64613.53;5025428;28;45797;-73
2022/08/23 01:04:26;;;;;;;;;0.50;0.50;;;;;-147.47;100.00;64613.53;5025387;28;46394;-73
2022/08/23 01:07:10;;;;;;;;;1.00;1.00;;;;;-147.47;100.00;64613.53;5024646;28;45859;-73
2022/08/23 01:09:39;;;;;;;;;1.50;1.00;;;;;-147.47;100.00;64613.53;4994548;28;45766;-72
2022/08/23 01:12:10;;;;;;;;;1.00;1.00;;;;;-147.47;100.00;64613.53;5011716;28;45775;-71
2022/08/23 01:14:58;;;;;;;;;1.00;1.00;;;;;-147.47;100.00;64613.53;4993679;28;45553;-72
2022/08/23 01:17:33;;;;;;;;;1.00;1.00;;;;;-147.47;100.00;64613.53;5011871;28;45706;-71
2022/08/23 01:20:03;;;;;;;;;2.00;2.00;;;;;-147.47;100.00;64613.53;4999298;28;45768;-72
2022/08/23 01:22:52;;;;;;;;;1.00;1.00;;;;;-147.47;100.00;64613.53;5029670;28;45654;-72
2022/08/23 01:25:21;;;;;;;;;1.00;1.00;;;;;-147.47;100.00;64613.53;5028599;28;45447;-72
2022/08/23 01:27:48;;;;;;;;;2.00;1.00;;;;;-147.47;100.00;64613.53;5016475;28;46332;-72
2022/08/23 01:30:16;;;;;;;;;3.00;2.00;;;;;-147.47;100.00;64613.53;5029150;28;45440;-73
2022/08/23 01:32:53;;;;;;;;;1.00;1.00;;;;;-147.47;100.00;64613.53;5031124;28;45733;-72
2022/08/23 01:35:23;;;;;;;;;2.00;2.00;;;;;-147.47;100.00;64613.53;5018631;28;45432;-74
2022/08/23 01:37:48;;;;;;;;;2.00;1.00;;;;;-147.47;100.00;64613.53;5029895;28;46508;-72
2022/08/23 01:40:14;;;;;;;;;2.00;2.00;;;;;-147.47;100.00;64613.53;5027157;28;45474;-72
2022/08/23 01:42:41;;;;;;;;;2.00;2.00;;;;;-147.47;100.00;64613.53;5011599;28;45831;-72
2022/08/23 01:45:11;;;;;;;;;4.00;1.00;;;;;-147.47;100.00;64613.53;5013300;28;45693;-71
2022/08/23 01:47:37;;;;;;;;;1.00;1.00;;;;;-147.47;100.00;64613.53;4999972;28;47151;-79
2022/08/23 01:50:03;;;;;;;;;1.00;1.00;;;;;-147.47;100.00;64613.53;5013366;28;45431;-79
2022/08/23 01:52:29;;;;;;;;;1.00;1.00;;;;;-147.47;100.00;64613.53;5019062;28;45799;-79
2022/08/23 01:54:56;;;;;;;;;2.00;1.00;;;;;-147.47;100.00;64613.53;5027995;28;45437;-79
2022/08/23 01:57:21;;;;;;;;;2.00;2.00;;;;;-147.47;100.00;64613.53;5032101;28;46008;-79
2022/08/23 01:59:47;;;;;;;;;2.00;1.50;;;;;-147.47;100.00;64613.53;5033109;28;45848;-78
2022/08/23 02:02:13;;;;;;;;;1.00;1.00;;;;;-147.47;100.00;64613.53;5031348;28;45663;-72
2022/08/23 02:04:39;;;;;;;;;1.00;1.00;;;;;-147.47;100.00;64613.53;5023202;28;45533;-73
2022/08/23 02:07:04;;;;;;;;;1.00;1.00;;;;;-147.47;100.00;64613.53;5002527;28;47535;-74
2022/08/23 02:09:30;;;;;;;;;0.00;0.00;;;;;-147.47;100.00;64613.53;5017710;28;45749;-73
2022/08/23 02:11:56;;;;;;;;;1.50;0.00;;;;;-147.47;100.00;64613.53;5021941;28;45642;-72
2022/08/23 02:14:21;;;;;;;;;1.00;1.00;;;;;-147.47;100.00;64613.53;5011595;28;45983;-72
2022/08/23 02:16:50;;;;;;;;;0.25;0.25;;;;;-147.47;100.00;64613.53;5029365;28;47333;-77
2022/08/23 02:19:17;;;;;;;;;3.25;2.00;;;;;-147.47;100.00;64613.53;5028990;28;45341;-78
2022/08/23 02:21:43;;;;;;;;;1.75;0.50;;;;;-147.47;100.00;64613.53;5027878;28;45920;-78
2022/08/23 02:24:15;;;;;;;;;1.00;1.00;;;;;-147.47;100.00;64613.53;5020589;28;45568;-77
2022/08/23 02:26:45;;;;;;;;;3.00;0.50;;;;;-147.47;100.00;64613.53;5012288;28;45827;-79
2022/08/23 02:29:11;;;;;;;;;0.00;0.00;;;;;-147.47;100.00;64613.53;5024540;28;45414;-79
2022/08/23 02:31:37;;;;;;;;;1.00;1.00;;;;;-147.47;100.00;64613.53;5011801;28;45370;-80
2022/08/23 02:34:03;;;;;;;;;1.00;1.00;;;;;-147.47;100.00;64613.53;5031261;28;45893;-78
2022/08/23 02:36:28;;;;;;;;;1.00;1.00;;;;;-147.47;100.00;64613.53;5021454;28;45757;-78
2022/08/23 02:38:54;;;;;;;;;2.00;1.00;;;;;-147.47;100.00;64613.53;5020422;28;45539;-78
2022/08/23 02:41:21;;;;;;;;;1.00;1.00;;;;;-147.47;100.00;64613.53;4993897;28;45769;-78
2022/08/23 02:43:50;;;;;;;;;0.50;0.50;;;;;-147.47;100.00;64613.53;5017375;28;45749;-78
2022/08/23 02:46:16;;;;;;;;;1.00;1.00;;;;;-147.47;100.00;64613.53;5017634;28;45624;-78
2022/08/23 02:48:41;;;;;;;;;1.75;1.75;;;;;-147.47;100.00;64613.53;5023789;28;45312;-78
2022/08/23 02:51:07;;;;;;;;;1.00;1.00;;;;;-147.47;100.00;64613.53;5023774;28;46060;-79
2022/08/23 02:53:33;;;;;;;;;1.00;1.00;;;;;-147.47;100.00;64613.53;5024880;28;45450;-79
2022/08/23 02:55:59;;;;;;;;;1.00;1.00;;;;;-147.47;100.00;64613.53;5020194;28;45812;-78
2022/08/23 02:58:25;;;;;;;;;0.25;0.25;;;;;-147.47;100.00;64613.53;5019875;28;45497;-78
2022/08/23 03:00:52;;;;;;;;;0.50;0.50;;;;;-147.47;100.00;64613.53;5040935;28;45658;-79
2022/08/23 03:03:18;;;;;;;;;0.25;0.25;;;;;-147.47;100.00;64613.53;5040118;28;45344;-78
2022/08/23 03:05:44;;;;;;;;;0.00;0.00;;;;;-147.47;100.00;64613.53;5059062;28;45479;-79
2022/08/23 03:08:10;;;;;;;;;1.00;1.00;;;;;-147.47;100.00;64613.53;5034843;28;44852;-78
2022/08/23 03:10:40;;;;;;;;;1.00;1.00;;;;;-147.47;100.00;64613.53;5050108;28;45241;-77
2022/08/23 03:13:06;;;;;;;;;2.00;1.00;;;;;-147.47;100.00;64613.53;5045495;28;45448;-80
2022/08/23 03:15:32;;;;;;;;;1.00;1.00;;;;;-147.47;100.00;64613.53;5041801;28;46230;-78
2022/08/23 03:17:57;;;;;;;;;2.00;1.00;;;;;-147.47;100.00;64613.53;5041377;28;45442;-78
2022/08/23 03:20:22;;;;;;;;;1.00;1.00;;;;;-147.47;100.00;64613.53;5040592;28;45346;-79
2022/08/23 03:22:48;;;;;;;;;1.00;1.00;;;;;-147.47;100.00;64613.53;5012104;28;45936;-78
2022/08/23 03:25:13;;;;;;;;;2.00;1.00;;;;;-147.47;100.00;64613.53;5019944;28;46129;-79
2022/08/23 03:27:39;;;;;;;;;1.50;1.00;;;;;-147.47;100.00;64613.53;5032874;28;45767;-80
2022/08/23 03:30:06;;;;;;;;;1.00;1.00;;;;;-147.47;100.00;64613.53;5035569;28;45756;-80
2022/08/23 03:32:31;;;;;;;;;1.25;1.25;;;;;-147.47;100.00;64613.53;5029613;28;45443;-79
2022/08/23 03:34:57;;;;;;;;;1.00;1.00;;;;;-147.47;100.00;64613.53;5017708;28;46381;-79
2022/08/23 03:37:22;;;;;;;;;3.50;2.00;;;;;-147.47;100.00;64613.53;5036591;28;45986;-79
2022/08/23 03:39:48;;;;;;;;;1.00;1.00;;;;;-147.47;100.00;64613.53;5022828;28;45740;-79
2022/08/23 03:42:14;;;;;;;;;1.00;1.00;;;;;-147.47;100.00;64613.53;5035115;28;45605;-78
2022/08/23 03:44:40;;;;;;;;;1.00;1.00;;;;;-147.47;100.00;64613.53;5028581;28;46308;-77
2022/08/23 03:47:05;;;;;;;;;1.00;1.00;;;;;-147.47;100.00;64613.53;5036605;28;45912;-77
2022/08/23 03:49:31;;;;;;;;;1.25;1.00;;;;;-147.47;100.00;64613.53;5034326;28;45510;-79
2022/08/23 03:51:59;;;;;;;;;1.75;0.25;;;;;-147.47;100.00;64613.53;5032596;28;45837;-79
2022/08/23 03:54:25;;;;;;;;;1.50;1.50;;;;;-147.47;100.00;64613.53;5036440;28;45768;-80
2022/08/23 03:56:54;;;;;;;;;1.50;1.50;;;;;-147.47;100.00;64613.53;5035374;28;45737;-80
2022/08/23 03:59:20;;;;;;;;;1.25;1.25;;;;;-147.47;100.00;64613.53;5033500;28;45555;-79
2022/08/23 04:01:45;;;;;;;;;1.00;1.00;;;;;-147.47;100.00;64613.53;5010357;28;45685;-80
2022/08/23 04:04:11;;;;;;;;;1.00;1.00;;;;;-147.47;100.00;64613.53;5013821;28;48123;-80
2022/08/23 04:06:37;;;;;;;;;3.00;1.50;;;;;-147.47;100.00;64613.53;5028308;28;45764;-82
2022/08/23 04:09:03;;;;;;;;;1.00;1.00;;;;;-147.47;100.00;64613.53;5022856;28;45427;-78
2022/08/23 04:11:28;;;;;;;;;1.25;1.25;;;;;-147.47;100.00;64613.53;5030289;28;46002;-77
2022/08/23 04:13:54;;;;;;;;;1.00;1.00;;;;;-147.47;100.00;64613.53;5032910;28;45587;-80
2022/08/23 04:16:20;;;;;;;;;2.00;2.00;;;;;-147.47;100.00;64613.53;5018598;28;45922;-80
2022/08/23 04:18:46;;;;;;;;;2.75;1.25;;;;;-147.47;100.00;64613.53;5033639;28;45443;-79
2022/08/23 04:21:15;;;;;;;;;2.00;2.00;;;;;-147.47;100.00;64613.53;5029486;28;45421;-80
2022/08/23 04:23:42;;;;;;;;;1.75;1.75;;;;;-147.47;100.00;64613.53;5016197;28;48356;-80
2022/08/23 04:26:08;;;;;;;;;1.50;1.50;;;;;-147.47;100.00;64613.53;5031947;28;45523;-79
2022/08/23 04:28:34;;;;;;;;;1.25;1.25;;;;;-147.47;100.00;64613.53;5032649;28;45777;-78
2022/08/23 04:31:01;;;;;;;;;1.50;1.50;;;;;-147.47;100.00;64613.53;5030473;28;46938;-72
2022/08/23 04:33:30;;;;;;;;;0.00;0.00;;;;;-147.47;100.00;64613.53;5027712;28;45462;-71
2022/08/23 04:35:56;;;;;;;;;1.00;1.00;;;;;-147.47;100.00;64613.53;5033521;28;45930;-72
2022/08/23 04:38:21;;;;;;;;;2.00;1.00;;;;;-147.47;100.00;64613.53;5032752;28;45499;-78
2022/08/23 04:43:31;;;;;;;;;1.00;1.00;;;;;-147.47;100.00;64613.53;5017369;28;45856;-79
2022/08/23 04:45:56;;;;;;;;;0.00;0.00;;;;;-147.47;100.00;64613.53;5034887;28;45493;-79
2022/08/23 04:48:22;;;;;;;;;1.25;1.25;;;;;-147.47;100.00;64613.53;5038731;28;45807;-80
2022/08/23 04:50:48;;;;;;;;;1.00;1.00;;;;;-147.47;100.00;64613.53;5038183;28;45907;-79
2022/08/23 04:53:13;;;;;;;;;1.25;1.25;;;;;-147.47;100.00;64613.53;5017089;28;46214;-81
2022/08/23 04:55:39;;;;;;;;;1.00;1.00;;;;;-147.47;100.00;64613.53;5025009;28;45614;-79
2022/08/23 04:58:05;;;;;;;;;4.00;2.00;;;;;-147.47;100.00;64613.53;5016049;28;45525;-78
2022/08/23 05:00:30;;;;;;;;;2.00;2.00;;;;;-147.47;100.00;64613.53;5020181;28;45704;-79
2022/08/23 05:02:56;;;;;;;;;1.25;1.25;;;;;-147.47;100.00;64613.53;5016380;28;45486;-78
2022/08/23 05:05:21;;;;;;;;;1.00;1.00;;;;;-147.47;100.00;64613.53;5009945;28;45751;-80
2022/08/23 05:07:47;;;;;;;;;1.25;1.25;;;;;-147.47;100.00;64613.53;5018207;28;45748;-80
2022/08/23 05:10:14;;;;;;;;;1.50;1.50;;;;;-147.47;100.00;64613.53;5002915;28;45442;-79
2022/08/23 05:12:40;;;;;;;;;2.00;2.00;;;;;-147.47;100.00;64613.53;5000954;28;48160;-79
2022/08/23 05:15:08;;;;;;;;;1.00;1.00;;;;;-147.47;100.00;64613.53;5013708;28;45792;-80
2022/08/23 05:17:34;;;;;;;;;1.00;1.00;;;;;-147.47;100.00;64613.53;5012161;28;45363;-79
2022/08/23 05:20:00;;;;;;;;;3.33;2.00;;;;;-147.47;100.00;64613.53;5030035;28;45495;-79
2022/08/23 05:22:25;;;;;;;;;1.50;1.50;;;;;-147.47;100.00;64613.53;5024528;28;45411;-78
2022/08/23 05:24:51;;;;;;;;;2.00;2.00;;;;;-147.47;100.00;64613.53;5014806;28;45760;-73
2022/08/23 05:27:17;;;;;;;;;2.00;2.00;;;;;-147.47;100.00;64613.53;5026876;28;45453;-73
2022/08/23 05:29:42;;;;;;;;;5.25;3.00;;;;;-147.47;100.00;64613.53;5027383;28;45973;-73
2022/08/23 05:32:09;;;;;;;;;3.25;2.25;;;;;-147.47;100.00;64613.53;5017642;28;47105;-74
2022/08/23 05:34:35;;;;;;;;;2.00;2.00;;;;;-147.47;100.00;64613.53;5018194;28;45824;-74
2022/08/23 05:37:00;;;;;;;;;3.00;3.00;;;;;-147.47;100.00;64613.53;5026259;28;46683;-73
2022/08/23 05:39:26;;;;;;;;;2.25;1.75;;;;;-147.47;100.00;64613.53;5007546;28;45922;-72
2022/08/23 05:41:51;;;;;;;;;2.00;2.00;;;;;-147.47;100.00;64613.53;5009856;28;46686;-72
2022/08/23 05:44:16;;;;;;;;;3.00;1.00;;;;;-147.47;100.00;64613.53;5027314;28;45813;-73
2022/08/23 05:46:42;;;;;;;;;2.50;2.00;;;;;-147.47;100.00;64613.53;5011884;28;46183;-72
2022/08/23 05:49:07;;;;;;;;;2.00;2.00;;;;;-147.47;100.00;64613.53;5025236;28;45545;-73
2022/08/23 05:51:34;;;;;;;;;3.75;1.25;;;;;-147.47;100.00;64613.53;5022653;28;46126;-74
2022/08/23 05:54:06;;;;;;;;;2.00;2.00;;;;;-147.47;100.00;64613.53;5020217;28;45763;-73
2022/08/23 05:56:37;;;;;;;;;4.00;2.75;;;;;-147.47;100.00;64613.53;5018856;28;45486;-74
2022/08/23 05:59:06;;;;;;;;;1.75;1.75;;;;;-147.47;100.00;64613.53;5010893;28;45796;-72
2022/08/23 06:01:33;;;;;;;;;2.25;1.75;;;;;-147.47;100.00;64613.53;5023673;28;46929;-73
2022/08/23 06:04:01;;;;;;;;;3.75;1.50;;;;;-147.47;100.00;64613.53;5020719;28;45497;-77
2022/08/23 06:06:27;;;;;;;;;1.00;1.00;;;;;-147.47;100.00;64613.53;5025797;28;45456;-74
2022/08/23 06:08:52;;;;;;;;;1.00;1.00;;;;;-147.47;100.00;64613.53;5024204;28;47034;-73
2022/08/23 06:11:22;;;;;;;;;2.00;2.00;;;;;-147.47;100.00;64613.53;5026857;28;45768;-73
2022/08/23 06:13:51;;;;;;;;;0.25;0.25;;;;;-147.47;100.00;64613.53;5024864;28;45540;-75
2022/08/23 06:16:19;;;;;;;;;1.25;1.25;;;;;-147.47;100.00;64613.53;5022154;28;45562;-73
2022/08/23 06:18:45;;;;;;;;;0.00;0.00;;;;;-147.47;100.00;64613.53;5028679;28;46030;-73
2022/08/23 06:21:13;;;;;;;;;2.25;2.25;;;;;-147.47;100.00;64613.53;5027863;28;46455;-73
2022/08/23 06:23:40;;;;;;;;;3.50;1.00;;;;;-147.47;100.00;64613.53;5022686;28;45624;-73
2022/08/23 06:26:32;;;;;;;;;2.00;2.00;;;;;-147.47;100.00;64613.53;5012059;28;45515;-72
2022/08/23 06:29:01;;;;;;;;;2.25;2.00;;;;;-147.47;100.00;64613.53;5009903;28;45575;-71
2022/08/23 06:31:46;;;;;;;;;2.25;1.75;;;;;-147.47;100.00;64613.53;4995569;28;46376;-79
2022/08/23 06:34:18;;;;;;;;;4.25;1.50;;;;;-147.47;100.00;64613.53;5026055;28;46016;-79
2022/08/23 06:36:48;;;;;;;;;0.00;0.00;;;;;-147.47;100.00;64613.53;5026815;28;45796;-79
2022/08/23 06:39:16;;;;;;;;;3.25;2.75;;;;;-147.47;100.00;64613.53;5025521;28;45377;-78
2022/08/23 06:41:43;;;;;;;;;2.00;2.00;;;;;-147.47;100.00;64613.53;5029265;28;46479;-78
2022/08/23 06:44:09;;;;;;;;;4.00;2.50;;;;;-147.47;100.00;64613.53;5017025;28;45785;-81
2022/08/23 06:46:36;;;;;;;;;3.00;2.00;;;;;-147.47;100.00;64613.53;5025817;28;45683;-74
2022/08/23 06:49:04;;;;;;;;;2.00;2.00;;;;;-147.47;100.00;64613.53;5015174;28;45361;-73
2022/08/23 06:51:34;;;;;;;;;2.25;2.25;;;;;-147.47;100.00;64613.53;5009634;28;46424;-75
2022/08/23 06:54:03;;;;;;;;;4.00;2.75;;;;;-147.47;100.00;64613.53;5024722;28;45373;-75
2022/08/23 06:56:29;;;;;;;;;3.25;3.25;;;;;-147.47;100.00;64613.53;5018825;28;45560;-72
2022/08/23 06:58:55;;;;;;;;;15.00;12.00;;;;;-147.47;100.00;64613.53;5015508;28;45776;-73
2022/08/23 07:01:31;;;;;;;;;7.75;6.00;;;;;-147.47;100.00;64613.53;5018151;28;46534;-75
2022/08/23 07:03:58;;;;;;;;;3.50;3.50;;;;;-147.47;100.00;64613.53;5017033;28;45843;-81
2022/08/23 07:06:27;;;;;;;;;6.50;5.50;;;;;-147.47;100.00;64613.53;5005642;28;45711;-81
2022/08/23 07:08:53;;;;;;;;;3.75;3.75;;;;;-147.47;100.00;64613.53;5027656;28;47528;-74
2022/08/23 07:11:20;;;;;;;;;4.00;4.00;;;;;-147.47;100.00;64613.53;5010918;28;46676;-74
2022/08/23 07:13:46;;;;;;;;;6.00;5.25;;;;;-147.47;100.00;64613.53;5006868;28;45587;-75
2022/08/23 07:16:19;;;;;;;;;2.00;2.00;;;;;-147.47;100.00;64613.53;5011730;28;46007;-85
2022/08/23 07:18:48;;;;;;;;;6.25;4.50;;;;;-147.47;100.00;64613.53;5003985;28;46096;-82
2022/08/23 07:21:14;;;;;;;;;2.75;2.75;;;;;-147.47;100.00;64613.53;5018977;28;46508;-80
2022/08/23 07:23:39;;;;;;;;;5.25;4.25;;;;;-147.47;100.00;64613.53;5025596;28;45784;-81
2022/08/23 07:26:13;;;;;;;;;3.50;2.75;;;;;-147.47;100.00;64613.53;5015902;28;45590;-80
2022/08/23 07:28:40;;;;;;;;;3.00;2.00;;;;;-147.47;100.00;64613.53;5025672;28;45659;-80
2022/08/23 07:31:20;;;;;;;;;3.00;3.00;;;;;-147.47;100.00;64613.53;5015367;28;46430;-79
2022/08/23 07:33:47;;;;;;;;;3.00;2.00;;;;;-147.47;100.00;64613.53;4999035;28;45897;-81
2022/08/23 07:36:18;;;;;;;;;4.25;2.00;;;;;-147.47;100.00;64613.53;5002966;28;45533;-79
2022/08/23 07:38:45;;;;;;;;;2.00;1.25;;;;;-147.47;100.00;64613.53;5018435;28;45689;-80
2022/08/23 07:41:11;;;;;;;;;2.00;2.00;;;;;-147.47;100.00;64613.53;5005134;28;48305;-81
2022/08/23 07:43:38;;;;;;;;;4.00;1.75;;;;;-147.47;100.00;64613.53;5027033;28;45675;-81
2022/08/23 07:46:04;;;;;;;;;2.00;2.00;;;;;-147.47;100.00;64613.53;5018988;28;45602;-74
2022/08/23 07:48:30;;;;;;;;;1.75;1.75;;;;;-147.47;100.00;64613.53;5018516;28;46501;-75
2022/08/23 07:51:02;;;;;;;;;2.50;2.50;;;;;-147.47;100.00;64613.53;5028112;28;45940;-75
2022/08/23 07:53:28;;;;;;;;;1.00;1.00;;;;;-147.47;100.00;64613.53;5015478;28;45582;-74
2022/08/23 07:55:55;;;;;;;;;3.00;3.00;;;;;-147.47;100.00;64613.53;5023307;28;45789;-75
2022/08/23 07:58:23;;;;;;;;;1.00;1.00;;;;;-147.47;100.00;64613.53;5015187;28;45820;-74
2022/08/23 08:00:49;;;;;;;;;1.00;1.00;;;;;-147.47;100.00;64613.53;5005277;28;48240;-75
2022/08/23 08:03:15;;;;;;;;;1.50;1.50;;;;;-147.47;100.00;64613.53;5017406;28;45507;-74
2022/08/23 08:05:41;;;;;;;;;0.75;0.75;;;;;-147.47;100.00;64613.53;5022751;28;45432;-78
2022/08/23 08:08:08;;;;;;;;;2.00;2.00;;;;;-147.47;100.00;64613.53;5013326;28;46299;-75
2022/08/23 08:10:38;;;;;;;;;2.00;2.00;;;;;-147.47;100.00;64613.53;5028511;28;47130;-73
2022/08/23 08:13:04;;;;;;;;;1.50;1.50;;;;;-147.47;100.00;64613.53;5030681;28;45681;-73
2022/08/23 08:15:29;;;;;;;;;1.00;1.00;;;;;-147.47;100.00;64613.53;5026519;28;45889;-79
2022/08/23 08:17:55;;;;;;;;;0.25;0.25;;;;;-147.47;100.00;64613.53;5033291;28;45944;-81
2022/08/23 08:20:21;;;;;;;;;1.00;1.00;;;;;-147.47;100.00;64613.53;5003782;28;47046;-81
2022/08/23 08:22:47;;;;;;;;;3.00;1.50;;;;;-147.47;100.00;64613.53;5017745;28;45842;-80
2022/08/23 08:25:13;;;;;;;;;1.50;1.00;;;;;-147.47;100.00;64613.53;5017977;28;45664;-82
2022/08/23 08:27:40;;;;;;;;;1.00;1.00;;;;;-147.47;100.00;64613.53;5020602;28;45855;-83
2022/08/23 08:30:07;;;;;;;;;2.00;2.00;;;;;-147.47;100.00;64613.53;5031690;28;46177;-77
2022/08/23 08:32:33;;;;;;;;;2.50;1.00;;;;;-147.47;100.00;64613.53;5023543;28;45448;-78
2022/08/23 08:34:59;;;;;;;;;1.00;1.00;;;;;-147.47;100.00;64613.53;5026296;28;45648;-70
2022/08/23 08:37:24;;;;;;;;;1.25;1.25;;;;;-147.47;100.00;64613.53;5029920;28;45698;-70
2022/08/23 08:39:50;;;;;;;;;2.00;2.00;;;;;-147.47;100.00;64613.53;5008386;28;45879;-73
2022/08/23 08:42:39;;;;;;;;;1.75;0.00;;;;;-147.47;100.00;64613.53;5026357;28;45439;-75
2022/08/23 08:45:17;;;;;;;;;2.50;2.00;;;;;-147.47;100.00;64613.53;5016551;28;45447;-73
2022/08/23 08:47:49;;;;;;;;;1.00;1.00;;;;;-147.47;100.00;64613.53;5004114;28;45893;-73
2022/08/23 08:50:17;;;;;;;;;2.25;2.25;;;;;-147.47;100.00;64613.53;5023016;28;46811;-74
2022/08/23 08:53:01;;;;;;;;;4.00;3.00;;;;;-147.47;100.00;64613.53;5022097;28;45745;-73
2022/08/23 08:55:40;;;;;;;;;2.00;2.00;;;;;-147.47;100.00;64613.53;5016584;28;45859;-73
2022/08/23 08:58:10;;;;;;;;;1.00;1.00;;;;;-147.47;100.00;64613.53;5004880;28;45541;-72
2022/08/23 09:00:37;;;;;;;;;1.75;1.75;;;;;-147.47;100.00;64613.53;5022456;28;46210;-78
2022/08/23 09:03:09;;;;;;;;;1.00;1.00;;;;;-147.47;100.00;64613.53;5023490;28;45560;-75
2022/08/23 09:06:06;;;;;;;;;1.00;1.00;;;;;-147.47;100.00;64613.53;5015165;28;45777;-75
2022/08/23 09:08:31;;;;;;;;;1.75;1.75;;;;;-147.47;100.00;64613.53;4999374;28;45482;-74
2022/08/23 09:11:14;;;;;;;;;1.00;1.00;;;;;-147.47;100.00;64613.53;5010172;28;47093;-76
2022/08/23 09:13:52;;;;;;;;;1.50;1.50;;;;;-147.47;100.00;64613.53;5011475;28;45938;-74
2022/08/23 09:16:27;;;;;;;;;2.00;1.00;;;;;-147.47;100.00;64613.53;5016052;28;45897;-75
2022/08/23 09:18:55;;;;;;;;;1.00;1.00;;;;;-147.47;100.00;64613.53;5024465;28;45813;-82
2022/08/23 09:21:21;;;;;;;;;1.00;1.00;;;;;-147.47;100.00;64613.53;5018274;28;45859;-83
2022/08/23 09:23:49;;;;;;;;;1.00;1.00;;;;;-147.47;100.00;64613.53;5020183;28;45692;-82
2022/08/23 09:26:24;;;;;;;;;3.00;3.00;;;;;-147.47;100.00;64613.53;5031178;28;45713;-82
2022/08/23 09:28:54;;;;;;;;;1.00;1.00;;;;;-147.47;100.00;64613.53;5027370;28;45397;-82
2022/08/23 09:31:51;;;;;;;;;1.50;1.50;;;;;-147.47;100.00;64613.53;5028275;28;45631;-81
2022/08/23 09:34:19;;;;;;;;;1.00;1.00;;;;;-147.47;100.00;64613.53;5029260;28;45491;-76
2022/08/23 09:36:45;;;;;;;;;1.00;1.00;;;;;-147.47;100.00;64613.53;5025550;28;45613;-75
2022/08/23 09:39:26;;;;;;;;;2.00;2.00;;;;;-147.47;100.00;64613.53;5018297;28;45670;-74
2022/08/23 09:41:51;;;;;;;;;4.00;4.00;;;;;-147.47;100.00;64613.53;5011348;28;48007;-74
2022/08/23 09:44:37;;;;;;;;;1.00;1.00;;;;;-147.47;100.00;64613.53;5026798;28;45859;-71
2022/08/23 09:47:10;;;;;;;;;1.25;1.25;;;;;-147.47;100.00;64613.53;5017632;28;45835;-70
2022/08/23 09:49:36;;;;;;;;;1.00;1.00;;;;;-147.47;100.00;64613.53;5005203;28;46046;-71
2022/08/23 09:52:26;;;;;;;;;1.00;1.00;;;;;-147.47;100.00;64613.53;5015504;28;46825;-74
2022/08/23 09:55:01;;;;;;;;;1.60;1.00;;;;;-147.47;100.00;64613.53;5012682;28;45737;-75
2022/08/23 09:57:30;;;;;;;;;0.50;0.50;;;;;-147.47;100.00;64613.53;5013509;28;45833;-82
2022/08/23 10:00:16;;;;;;;;;1.00;1.00;;;;;-147.47;100.00;64613.53;5013396;28;45610;-81
2022/08/23 10:02:42;;;;;;;;;2.00;2.00;;;;;-147.47;100.00;64613.53;5000723;28;47054;-78
2022/08/23 10:05:27;;;;;;;;;2.00;2.00;;;;;-147.47;100.00;64613.53;5017023;28;45622;-82
2022/08/23 10:08:01;;;;;;;;;1.00;1.00;;;;;-147.47;100.00;64613.53;5019650;28;45463;-80
2022/08/23 10:10:34;;;;;;;;;1.00;1.00;;;;;-147.47;100.00;64613.53;5015312;28;45815;-80
2022/08/23 10:13:02;;;;;;;;;1.75;1.75;;;;;-147.47;100.00;64613.53;5019107;28;46528;-79
2022/08/23 10:15:56;;;;;;;;;1.50;1.50;;;;;-147.47;100.00;64613.53;5015155;28;45919;-81
2022/08/23 10:18:51;;;;;;;;;1.00;1.00;;;;;-147.47;100.00;64613.53;5017912;28;45456;-81
2022/08/23 10:21:36;;;;;;;;;1.00;1.00;;;;;-147.47;100.00;64613.53;5017261;28;46537;-79
2022/08/23 10:24:18;;;;;;;;;2.00;1.00;;;;;-147.47;100.00;64613.53;5016504;28;45558;-76
2022/08/23 10:30:08;;;;;;;;;0.75;0.75;;;;;-147.47;100.00;64613.53;5012253;28;46018;-81
2022/08/23 10:32:46;;;;;;;;;0.00;0.00;;;;;-147.47;100.00;64613.53;4999004;28;46008;-81
2022/08/23 10:35:51;;;;;;;;;1.00;1.00;;;;;-147.47;100.00;64613.53;5025242;28;46182;-82
2022/08/23 10:38:25;;;;;;;;;1.00;1.00;;;;;-147.47;100.00;64613.53;5006488;28;45807;-83
2022/08/23 10:41:07;;;;;;;;;2.00;2.00;;;;;-147.47;100.00;64613.53;5030495;28;45927;-76
2022/08/23 10:43:43;;;;;;;;;1.00;1.00;;;;;-147.47;100.00;64613.53;4999680;28;46073;-76
2022/08/23 10:46:09;;;;;;;;;1.00;1.00;;;;;-147.47;100.00;64613.53;5003294;28;48385;-77
2022/08/23 10:48:39;;;;;;;;;0.00;0.00;;;;;-147.47;100.00;64613.53;4997120;28;45480;-76
2022/08/23 10:51:14;;;;;;;;;3.75;2.75;;;;;-147.47;100.00;64613.53;5017109;28;45976;-82
2022/08/23 10:53:48;;;;;;;;;2.25;2.25;;;;;-147.47;100.00;64613.53;5021230;28;45888;-81
2022/08/23 10:56:19;;;;;;;;;7.25;3.75;;;;;-147.47;100.00;64613.53;5024268;28;46865;-77
2022/08/23 10:59:02;;;;;;;;;2.00;2.00;;;;;-147.47;100.00;64613.53;5001308;28;45760;-78
2022/08/23 11:01:46;;;;;;;;;1.00;1.00;;;;;-147.47;100.00;64613.53;5016643;28;45694;-71
2022/08/23 11:04:30;;;;;;;;;1.00;1.00;;;;;-147.47;100.00;64613.53;5008719;28;47717;-77
2022/08/23 11:06:59;;;;;;;;;1.25;1.25;;;;;-147.47;100.00;64613.53;5013557;28;45895;-76
2022/08/23 11:09:24;;;;;;;;;1.00;1.00;;;;;-147.47;100.00;64613.53;5025387;28;46099;-78
2022/08/23 11:12:19;;;;;;;;;1.00;1.00;;;;;-147.47;100.00;64613.53;5028554;28;45942;-74
2022/08/23 11:15:11;;;;;;;;;0.00;0.00;;;;;-147.47;100.00;64613.53;5006430;28;46251;-75
2022/08/23 11:17:56;;;;;;;;;1.00;1.00;;;;;-147.47;100.00;64613.53;5004883;28;46791;-74
2022/08/23 11:20:49;;;;;;;;;2.00;1.00;;;;;-147.47;100.00;64613.53;5024106;28;45750;-79
2022/08/23 11:23:34;;;;;;;;;1.50;1.50;;;;;-147.47;100.00;64613.53;5027132;28;45557;-80
2022/08/23 11:26:01;;;;;;;;;2.00;2.00;;;;;-147.47;100.00;64613.53;5013051;28;46813;-75
2022/08/23 11:28:26;;;;;;;;;0.00;0.00;;;;;-147.47;100.00;64613.53;5023859;28;46115;-74
2022/08/23 11:30:56;;;;;;;;;0.00;0.00;;;;;-147.47;100.00;64613.53;5031928;28;45900;-80
2022/08/23 11:33:45;;;;;;;;;1.25;0.75;;;;;-147.47;100.00;64613.53;5036094;28;45525;-80